createdAt,value
2018-03-31T00:00:03.581Z,2.30
2018-03-31T00:02:30.528Z,2.20
2018-03-31T00:04:57.490Z,3.60
2018-03-31T00:07:24.438Z,2.70
2018-03-31T00:09:51.373Z,3.10
2018-03-31T00:12:18.347Z,2.60
2018-03-31T00:14:45.294Z,2.03
2018-03-31T00:17:13.411Z,2.43
2018-03-31T00:19:40.336Z,3.70
2018-03-31T00:22:07.311Z,2.07
2018-03-31T00:24:34.278Z,3.83
2018-03-31T00:27:01.989Z,3.37
2018-03-31T00:29:32.049Z,2.43
2018-03-31T00:31:58.998Z,2.43
2018-03-31T00:34:25.939Z,2.73
2018-03-31T00:36:52.883Z,2.50
2018-03-31T00:39:19.829Z,3.60
2018-03-31T00:41:46.803Z,2.17
2018-03-31T00:44:13.748Z,2.33
2018-03-31T00:46:40.692Z,2.93
2018-03-31T00:49:07.673Z,2.60
2018-03-31T00:51:35.390Z,3.70
2018-03-31T00:54:02.358Z,2.53
2018-03-31T00:56:29.306Z,1.50
2018-03-31T00:58:56.255Z,3.90
2018-03-31T01:01:23.233Z,3.07
2018-03-31T01:03:50.206Z,2.57
2018-03-31T01:06:17.155Z,3.73
2018-03-31T01:08:44.113Z,2.70
2018-03-31T01:11:11.069Z,3.67
2018-03-31T01:13:38.043Z,3.80
2018-03-31T01:16:05.005Z,4.17
2018-03-31T01:18:31.963Z,3.53
2018-03-31T01:20:58.949Z,2.73
2018-03-31T01:23:25.900Z,3.90
2018-03-31T01:25:52.857Z,2.67
2018-03-31T01:28:20.129Z,3.67
2018-03-31T01:30:47.082Z,3.63
2018-03-31T01:33:14.051Z,4.00
2018-03-31T01:35:40.989Z,4.33
2018-03-31T01:38:07.951Z,2.70
2018-03-31T01:40:34.893Z,5.10
2018-03-31T01:43:01.880Z,3.37
2018-03-31T01:45:28.859Z,3.70
2018-03-31T01:47:55.808Z,2.80
2018-03-31T01:50:22.766Z,2.90
2018-03-31T01:52:49.821Z,2.90
2018-03-31T01:55:16.773Z,2.50
2018-03-31T01:57:43.748Z,5.97
2018-03-31T02:00:10.699Z,4.30
2018-03-31T02:02:37.657Z,4.10
2018-03-31T02:05:04.601Z,3.73
2018-03-31T02:07:32.319Z,4.27
2018-03-31T02:09:59.273Z,3.07
2018-03-31T02:12:26.237Z,5.00
2018-03-31T02:14:53.196Z,4.27
2018-03-31T02:17:20.180Z,5.30
2018-03-31T02:19:47.110Z,4.83
2018-03-31T02:22:14.106Z,4.43
2018-03-31T02:24:41.062Z,4.70
2018-03-31T02:27:08.022Z,4.17
2018-03-31T02:29:34.973Z,5.40
2018-03-31T02:32:01.954Z,3.73
2018-03-31T02:34:28.909Z,6.10
2018-03-31T02:36:55.869Z,3.80
2018-03-31T02:39:23.612Z,3.50
2018-03-31T02:41:50.565Z,4.03
2018-03-31T02:44:17.526Z,4.37
2018-03-31T02:46:44.486Z,4.17
2018-03-31T02:49:12.211Z,3.87
2018-03-31T02:51:39.189Z,3.50
2018-03-31T02:54:06.145Z,5.30
2018-03-31T02:56:33.120Z,3.93
2018-03-31T02:59:00.085Z,4.33
2018-03-31T03:01:27.062Z,3.93
2018-03-31T03:03:54.032Z,6.93
2018-03-31T03:06:20.973Z,3.53
2018-03-31T03:08:47.925Z,4.20
2018-03-31T03:11:14.895Z,5.03
2018-03-31T03:13:42.156Z,3.97
2018-03-31T03:16:09.434Z,5.20
2018-03-31T03:18:36.384Z,6.20
2018-03-31T03:21:03.333Z,4.00
2018-03-31T03:23:30.295Z,6.00
2018-03-31T03:25:57.254Z,3.63
2018-03-31T03:28:24.216Z,5.20
2018-03-31T03:30:51.174Z,4.07
2018-03-31T03:33:18.113Z,4.00
2018-03-31T03:35:45.083Z,4.57
2018-03-31T03:38:12.030Z,4.00
2018-03-31T03:40:38.986Z,4.20
2018-03-31T03:43:06.727Z,5.40
2018-03-31T03:45:33.708Z,3.10
2018-03-31T03:48:00.688Z,4.87
2018-03-31T03:50:27.630Z,3.83
2018-03-31T03:52:54.603Z,5.77
2018-03-31T03:55:21.544Z,4.57
2018-03-31T03:57:48.485Z,3.80
2018-03-31T04:00:15.450Z,3.53
2018-03-31T04:02:42.404Z,5.57
2018-03-31T04:05:09.369Z,3.60
2018-03-31T04:07:36.329Z,3.67
2018-03-31T04:10:03.300Z,3.57
2018-03-31T04:12:30.254Z,4.77
2018-03-31T04:14:57.962Z,4.93
2018-03-31T04:17:24.918Z,4.20
2018-03-31T04:19:51.874Z,5.97
2018-03-31T04:22:18.834Z,4.27
2018-03-31T04:24:45.806Z,5.53
2018-03-31T04:27:13.517Z,3.87
2018-03-31T04:29:40.476Z,4.50
2018-03-31T04:32:07.430Z,4.70
2018-03-31T04:34:34.381Z,3.90
2018-03-31T04:37:01.344Z,5.20
2018-03-31T04:39:28.312Z,5.10
2018-03-31T04:41:55.286Z,5.00
2018-03-31T04:44:22.997Z,4.90
2018-03-31T04:46:49.944Z,5.53
2018-03-31T04:49:16.921Z,7.83
2018-03-31T04:51:43.876Z,4.00
2018-03-31T04:54:10.841Z,5.60
2018-03-31T04:56:37.784Z,5.77
2018-03-31T04:59:04.728Z,3.97
2018-03-31T05:01:31.709Z,6.30
2018-03-31T05:03:58.664Z,4.03
2018-03-31T05:06:25.638Z,5.23
2018-03-31T05:08:52.593Z,6.03
2018-03-31T05:11:19.556Z,5.03
2018-03-31T05:13:46.539Z,4.97
2018-03-31T05:16:13.486Z,5.07
2018-03-31T05:18:40.450Z,5.47
2018-03-31T05:21:07.404Z,5.93
2018-03-31T05:23:35.124Z,4.90
2018-03-31T05:26:02.101Z,6.13
2018-03-31T05:28:29.054Z,3.97
2018-03-31T05:30:56.777Z,6.63
2018-03-31T05:33:23.733Z,7.50
2018-03-31T05:35:50.694Z,5.63
2018-03-31T05:38:17.660Z,5.93
2018-03-31T05:40:45.792Z,6.43
2018-03-31T05:43:12.766Z,7.27
2018-03-31T05:45:39.725Z,6.50
2018-03-31T05:48:09.208Z,7.03
2018-03-31T05:50:36.154Z,6.17
2018-03-31T05:53:03.378Z,5.20
2018-03-31T05:55:31.093Z,8.47
2018-03-31T05:57:58.045Z,5.67
2018-03-31T06:00:25.008Z,5.60
2018-03-31T06:02:51.973Z,6.47
2018-03-31T06:05:19.697Z,6.67
2018-03-31T06:07:46.656Z,5.10
2018-03-31T06:10:13.609Z,6.30
2018-03-31T06:12:40.556Z,6.07
2018-03-31T06:15:07.532Z,7.47
2018-03-31T06:17:35.266Z,6.60
2018-03-31T06:20:02.254Z,5.63
2018-03-31T06:22:29.192Z,2.90
2018-03-31T06:24:56.137Z,4.97
2018-03-31T06:27:23.101Z,4.80
2018-03-31T06:29:50.061Z,4.67
2018-03-31T06:32:17.021Z,5.73
2018-03-31T06:34:43.973Z,4.90
2018-03-31T06:37:10.958Z,5.33
2018-03-31T06:39:37.938Z,5.90
2018-03-31T06:42:04.908Z,4.73
2018-03-31T06:44:31.875Z,5.30
2018-03-31T06:46:58.825Z,9.13
2018-03-31T06:49:25.794Z,5.10
2018-03-31T06:51:52.764Z,5.10
2018-03-31T06:54:19.718Z,5.57
2018-03-31T06:56:46.693Z,5.03
2018-03-31T06:59:13.646Z,6.67
2018-03-31T07:01:41.362Z,4.60
2018-03-31T07:04:08.317Z,5.90
2018-03-31T07:06:35.274Z,4.07
2018-03-31T07:09:02.253Z,4.10
2018-03-31T07:11:29.202Z,4.50
2018-03-31T07:13:56.394Z,5.07
2018-03-31T07:16:23.361Z,5.83
2018-03-31T07:18:50.312Z,5.13
2018-03-31T07:21:17.284Z,5.50
2018-03-31T07:23:44.234Z,4.67
2018-03-31T07:26:12.389Z,4.77
2018-03-31T07:28:39.353Z,4.73
2018-03-31T07:31:06.686Z,4.50
2018-03-31T07:33:33.634Z,4.30
2018-03-31T07:36:00.584Z,5.20
2018-03-31T07:38:27.531Z,4.17
2018-03-31T07:40:54.496Z,4.03
2018-03-31T07:43:21.451Z,3.60
2018-03-31T07:45:49.154Z,4.03
2018-03-31T07:48:16.085Z,3.73
2018-03-31T07:50:43.042Z,3.70
2018-03-31T07:53:10.000Z,3.93
2018-03-31T07:55:36.945Z,3.27
2018-03-31T07:58:03.901Z,4.10
2018-03-31T08:00:31.618Z,2.90
2018-03-31T08:02:58.577Z,3.23
2018-03-31T08:05:25.529Z,2.90
2018-03-31T08:07:52.481Z,4.00
2018-03-31T08:10:19.755Z,3.57
2018-03-31T08:12:48.217Z,2.60
2018-03-31T08:15:15.170Z,3.33
2018-03-31T08:17:42.137Z,3.20
2018-03-31T08:20:09.408Z,3.13
2018-03-31T08:22:36.370Z,2.63
2018-03-31T08:25:03.323Z,4.03
2018-03-31T08:27:30.269Z,2.83
2018-03-31T08:29:58.010Z,3.80
2018-03-31T08:32:24.952Z,3.43
2018-03-31T08:34:51.928Z,2.80
2018-03-31T08:37:18.880Z,2.20
2018-03-31T08:39:45.841Z,2.20
2018-03-31T08:42:12.800Z,3.13
2018-03-31T08:44:39.750Z,3.47
2018-03-31T08:47:06.713Z,3.43
2018-03-31T08:49:33.664Z,3.30
2018-03-31T08:52:00.941Z,3.93
2018-03-31T08:54:27.960Z,3.17
2018-03-31T08:56:54.867Z,3.20
2018-03-31T08:59:21.835Z,3.00
2018-03-31T09:01:48.805Z,3.13
2018-03-31T09:04:15.758Z,2.50
2018-03-31T09:06:42.715Z,2.90
2018-03-31T09:09:09.690Z,2.90
2018-03-31T09:11:36.743Z,2.60
2018-03-31T09:14:03.700Z,2.60
2018-03-31T09:16:30.649Z,2.90
2018-03-31T09:18:57.613Z,2.90
2018-03-31T09:21:25.397Z,2.60
2018-03-31T09:23:53.120Z,2.87
2018-03-31T09:26:20.065Z,2.70
2018-03-31T09:28:47.021Z,2.93
2018-03-31T09:31:14.183Z,3.73
2018-03-31T09:33:41.151Z,2.60
2018-03-31T09:36:08.113Z,3.07
2018-03-31T09:38:35.069Z,2.40
2018-03-31T09:41:02.014Z,2.77
2018-03-31T09:43:28.977Z,3.33
2018-03-31T09:45:56.276Z,2.70
2018-03-31T09:48:23.241Z,2.73
2018-03-31T09:50:50.193Z,2.20
2018-03-31T09:53:17.236Z,2.30
2018-03-31T09:55:44.203Z,1.97
2018-03-31T09:58:11.158Z,1.43
2018-03-31T10:00:38.110Z,2.00
2018-03-31T10:03:06.060Z,2.47
2018-03-31T10:05:33.002Z,1.90
2018-03-31T10:07:59.984Z,1.60
2018-03-31T10:10:26.939Z,1.50
2018-03-31T10:12:53.926Z,1.80
2018-03-31T10:15:20.870Z,1.57
2018-03-31T10:17:47.814Z,2.00
2018-03-31T10:20:14.781Z,1.40
2018-03-31T10:22:41.728Z,2.13
2018-03-31T10:25:08.720Z,1.30
2018-03-31T10:27:35.662Z,1.73
2018-03-31T10:30:04.122Z,1.50
2018-03-31T10:32:31.096Z,1.60
2018-03-31T10:34:58.038Z,1.77
2018-03-31T10:37:25.011Z,1.63
2018-03-31T10:39:51.968Z,1.60
2018-03-31T10:42:19.689Z,1.50
2018-03-31T10:44:46.640Z,1.40
2018-03-31T10:47:13.793Z,1.33
2018-03-31T10:49:40.754Z,1.40
2018-03-31T10:52:07.714Z,1.20
2018-03-31T10:54:34.666Z,1.30
2018-03-31T10:57:01.630Z,1.53
2018-03-31T10:59:28.577Z,1.40
2018-03-31T11:01:56.728Z,1.40
2018-03-31T11:04:23.684Z,1.40
2018-03-31T11:06:50.894Z,1.50
2018-03-31T11:09:18.021Z,1.30
2018-03-31T11:11:45.764Z,2.20
2018-03-31T11:14:12.731Z,0.93
2018-03-31T11:16:39.671Z,1.90
2018-03-31T11:19:06.791Z,1.10
2018-03-31T11:21:33.780Z,1.70
2018-03-31T11:24:00.738Z,1.30
2018-03-31T11:26:27.690Z,1.67
2018-03-31T11:28:55.413Z,1.60
2018-03-31T11:31:22.483Z,1.93
2018-03-31T11:33:49.442Z,1.30
2018-03-31T11:36:16.397Z,1.23
2018-03-31T11:38:43.340Z,1.43
2018-03-31T11:41:10.298Z,1.07
2018-03-31T11:43:37.252Z,1.30
2018-03-31T11:46:04.216Z,0.80
2018-03-31T11:48:31.165Z,1.10
2018-03-31T11:50:58.119Z,1.03
2018-03-31T11:53:25.081Z,0.90
2018-03-31T11:55:52.035Z,2.10
2018-03-31T11:58:19.316Z,1.10
2018-03-31T12:00:46.262Z,0.80
2018-03-31T12:03:14.246Z,0.93
2018-03-31T12:05:41.218Z,0.93
2018-03-31T12:08:08.165Z,0.50
2018-03-31T12:10:35.120Z,1.10
2018-03-31T12:13:02.084Z,1.00
2018-03-31T12:15:29.802Z,1.03
2018-03-31T12:17:56.848Z,0.73
2018-03-31T12:20:23.790Z,0.70
2018-03-31T12:22:50.749Z,0.77
2018-03-31T12:25:17.693Z,0.67
2018-03-31T12:27:44.641Z,0.73
2018-03-31T12:30:11.615Z,0.80
2018-03-31T12:32:38.568Z,0.97
2018-03-31T12:35:05.559Z,0.83
2018-03-31T12:37:32.501Z,0.90
2018-03-31T12:39:59.462Z,1.57
2018-03-31T12:42:26.653Z,0.70
2018-03-31T12:44:53.606Z,0.70
2018-03-31T12:47:20.653Z,0.60
2018-03-31T12:49:47.715Z,0.70
2018-03-31T12:52:14.666Z,1.00
2018-03-31T12:54:41.632Z,0.70
2018-03-31T12:57:08.856Z,0.57
2018-03-31T12:59:35.817Z,0.57
2018-03-31T13:02:02.791Z,1.13
2018-03-31T13:04:29.743Z,0.70
2018-03-31T13:06:56.725Z,0.50
2018-03-31T13:09:24.214Z,0.67
2018-03-31T13:11:51.479Z,0.70
2018-03-31T13:14:18.426Z,0.70
2018-03-31T13:16:45.381Z,1.10
2018-03-31T13:19:12.424Z,0.80
2018-03-31T13:21:39.381Z,0.70
2018-03-31T13:24:06.735Z,0.80
2018-03-31T13:26:33.693Z,0.80
2018-03-31T13:29:00.642Z,0.60
2018-03-31T13:31:27.620Z,0.70
2018-03-31T13:33:54.563Z,0.80
2018-03-31T13:36:21.505Z,0.90
2018-03-31T13:38:48.511Z,0.70
2018-03-31T13:41:15.471Z,0.70
2018-03-31T13:43:42.641Z,0.57
2018-03-31T13:46:09.574Z,0.60
2018-03-31T13:48:36.514Z,0.70
2018-03-31T13:51:03.484Z,0.67
2018-03-31T13:53:30.433Z,0.70
2018-03-31T13:55:57.405Z,0.77
2018-03-31T13:58:24.355Z,0.80
2018-03-31T14:00:53.876Z,0.90
2018-03-31T14:03:21.913Z,0.90
2018-03-31T14:05:48.861Z,0.80
2018-03-31T14:08:15.852Z,0.60
2018-03-31T14:10:42.795Z,0.52
2018-03-31T14:13:09.750Z,0.80
2018-03-31T14:15:36.760Z,0.90
2018-03-31T14:18:07.134Z,0.80
2018-03-31T14:20:34.081Z,0.73
2018-03-31T14:23:02.159Z,1.13
2018-03-31T14:25:29.073Z,0.87
2018-03-31T14:27:56.032Z,0.90
2018-03-31T14:30:22.981Z,0.60
2018-03-31T14:32:49.934Z,1.10
2018-03-31T14:35:16.880Z,0.60
2018-03-31T14:37:43.829Z,1.00
2018-03-31T14:40:10.810Z,0.70
2018-03-31T14:42:38.522Z,0.60
2018-03-31T14:45:05.504Z,0.90
2018-03-31T14:47:32.446Z,1.00
2018-03-31T14:49:59.585Z,0.80
2018-03-31T14:52:26.549Z,0.80
2018-03-31T14:54:53.510Z,0.77
2018-03-31T14:57:20.466Z,0.97
2018-03-31T14:59:47.417Z,0.83
2018-03-31T15:02:14.371Z,0.70
2018-03-31T15:04:41.322Z,0.70
2018-03-31T15:07:08.275Z,0.80
2018-03-31T15:09:35.494Z,0.60
2018-03-31T15:12:02.440Z,1.00
2018-03-31T15:14:29.394Z,0.70
2018-03-31T15:16:56.349Z,0.60
2018-03-31T15:19:24.839Z,0.60
2018-03-31T15:21:51.879Z,0.80
2018-03-31T15:24:18.840Z,0.83
2018-03-31T15:26:45.971Z,0.67
2018-03-31T15:29:12.939Z,0.80
2018-03-31T15:31:39.984Z,0.67
2018-03-31T15:34:06.937Z,0.70
2018-03-31T15:36:33.885Z,0.83
2018-03-31T15:39:00.830Z,0.70
2018-03-31T15:41:27.864Z,0.67
2018-03-31T15:43:54.822Z,1.10
2018-03-31T15:46:21.962Z,0.70
2018-03-31T15:48:48.892Z,0.70
2018-03-31T15:51:15.858Z,0.50
2018-03-31T15:53:42.809Z,0.50
2018-03-31T15:56:10.585Z,0.80
2018-03-31T15:58:37.539Z,0.60
2018-03-31T16:01:04.504Z,0.87
2018-03-31T16:03:31.760Z,0.90
2018-03-31T16:05:58.710Z,0.60
2018-03-31T16:08:25.667Z,0.83
2018-03-31T16:10:52.777Z,0.60
2018-03-31T16:13:19.715Z,0.60
2018-03-31T16:15:46.671Z,0.80
2018-03-31T16:18:13.625Z,1.57
2018-03-31T16:20:40.598Z,1.10
2018-03-31T16:23:07.544Z,0.67
2018-03-31T16:25:34.498Z,0.90
2018-03-31T16:28:01.456Z,0.80
2018-03-31T16:30:28.419Z,0.83
2018-03-31T16:32:55.372Z,0.70
2018-03-31T16:35:22.310Z,0.57
2018-03-31T16:37:49.281Z,1.07
2018-03-31T16:40:16.243Z,0.67
2018-03-31T16:42:43.185Z,0.90
2018-03-31T16:45:10.149Z,2.27
2018-03-31T16:47:37.866Z,0.73
2018-03-31T16:50:04.813Z,1.37
2018-03-31T16:52:31.764Z,0.73
2018-03-31T16:54:59.485Z,0.83
2018-03-31T16:57:26.429Z,0.90
2018-03-31T16:59:53.374Z,0.77
2018-03-31T17:02:20.353Z,0.60
2018-03-31T17:04:47.298Z,0.80
2018-03-31T17:07:14.257Z,1.27
2018-03-31T17:09:41.210Z,1.10
2018-03-31T17:12:08.153Z,1.10
2018-03-31T17:14:35.109Z,1.07
2018-03-31T17:17:02.075Z,1.00
2018-03-31T17:19:29.214Z,0.70
2018-03-31T17:21:56.155Z,0.70
2018-03-31T17:24:23.112Z,0.80
2018-03-31T17:26:50.061Z,1.13
2018-03-31T17:29:17.305Z,1.13
2018-03-31T17:31:44.279Z,0.80
2018-03-31T17:34:11.234Z,0.90
2018-03-31T17:36:38.225Z,1.40
2018-03-31T17:39:05.165Z,1.20
2018-03-31T17:41:32.126Z,0.90
2018-03-31T17:43:59.849Z,1.17
2018-03-31T17:46:26.788Z,0.80
2018-03-31T17:48:53.746Z,0.70
2018-03-31T17:51:20.731Z,0.80
2018-03-31T17:53:47.685Z,1.30
2018-03-31T17:56:14.645Z,5.63
2018-03-31T17:58:42.370Z,2.20
2018-03-31T18:01:09.331Z,1.77
2018-03-31T18:03:36.290Z,1.23
2018-03-31T18:06:03.228Z,1.33
2018-03-31T18:08:30.188Z,1.50
2018-03-31T18:10:57.144Z,2.50
2018-03-31T18:13:24.854Z,2.47
2018-03-31T18:15:51.808Z,2.33
2018-03-31T18:18:18.769Z,2.07
2018-03-31T18:20:45.722Z,2.33
2018-03-31T18:23:15.110Z,1.33
2018-03-31T18:25:42.046Z,2.30
2018-03-31T18:28:09.012Z,2.33
2018-03-31T18:30:35.954Z,1.90
2018-03-31T18:33:05.586Z,2.17
2018-03-31T18:35:32.629Z,2.20
2018-03-31T18:37:59.586Z,1.93
2018-03-31T18:40:26.559Z,1.30
2018-03-31T18:42:53.494Z,2.00
2018-03-31T18:45:20.451Z,1.70
2018-03-31T18:47:47.401Z,2.70
2018-03-31T18:50:14.358Z,2.97
2018-03-31T18:52:41.334Z,2.47
2018-03-31T18:55:08.283Z,1.90
2018-03-31T18:57:35.252Z,2.67
2018-03-31T19:00:02.190Z,1.87
2018-03-31T19:02:29.159Z,3.07
2018-03-31T19:04:56.113Z,2.10
2018-03-31T19:07:23.057Z,1.87
2018-03-31T19:09:50.044Z,2.90
2018-03-31T19:12:16.986Z,2.53
2018-03-31T19:14:44.239Z,2.60
2018-03-31T19:17:14.109Z,3.13
2018-03-31T19:19:41.050Z,3.93
2018-03-31T19:22:08.040Z,4.27
2018-03-31T19:24:40.729Z,3.50
2018-03-31T19:27:07.707Z,3.10
2018-03-31T19:29:36.175Z,4.07
2018-03-31T19:32:03.133Z,4.03
2018-03-31T19:34:30.170Z,4.30
2018-03-31T19:36:57.033Z,4.30
2018-03-31T19:39:29.499Z,4.70
2018-03-31T19:41:56.446Z,2.93
2018-03-31T19:44:23.394Z,2.07
2018-03-31T19:46:50.349Z,2.63
2018-03-31T19:49:17.313Z,3.33
2018-03-31T19:51:44.272Z,3.07
2018-03-31T19:54:11.233Z,2.77
2018-03-31T19:56:38.949Z,2.30
2018-03-31T19:59:05.914Z,2.03
2018-03-31T20:01:32.879Z,2.20
2018-03-31T20:04:00.802Z,2.10
2018-03-31T20:06:27.765Z,4.37
2018-03-31T20:08:54.726Z,7.40
2018-03-31T20:11:21.669Z,3.63
2018-03-31T20:13:48.725Z,3.43
2018-03-31T20:16:15.859Z,3.00
2018-03-31T20:18:42.832Z,3.40
2018-03-31T20:21:09.789Z,2.80
2018-03-31T20:23:36.738Z,1.90
2018-03-31T20:26:03.702Z,2.40
2018-03-31T20:28:30.650Z,1.90
2018-03-31T20:30:57.614Z,2.70
2018-03-31T20:33:24.577Z,1.90
2018-03-31T20:35:52.294Z,2.60
2018-03-31T20:38:19.254Z,2.97
2018-03-31T20:40:48.854Z,2.90
2018-03-31T20:43:15.809Z,2.70
2018-03-31T20:45:42.757Z,3.20
2018-03-31T20:48:10.982Z,2.50
2018-03-31T20:50:37.929Z,2.30
2018-03-31T20:53:04.873Z,2.23
2018-03-31T20:55:31.830Z,2.97
2018-03-31T20:57:58.798Z,2.40
2018-03-31T21:00:25.754Z,2.67
2018-03-31T21:02:52.721Z,2.77
2018-03-31T21:05:19.704Z,3.07
2018-03-31T21:07:46.666Z,2.33
2018-03-31T21:10:13.617Z,1.90
2018-03-31T21:12:41.337Z,1.77
2018-03-31T21:15:08.300Z,2.20
2018-03-31T21:17:35.249Z,1.60
2018-03-31T21:20:02.218Z,2.93
2018-03-31T21:22:29.191Z,2.10
2018-03-31T21:24:56.148Z,1.70
2018-03-31T21:27:23.110Z,1.33
2018-03-31T21:29:50.082Z,1.50
2018-03-31T21:32:17.034Z,1.30
2018-03-31T21:34:44.014Z,2.00
2018-03-31T21:37:12.461Z,1.80
2018-03-31T21:39:39.421Z,2.53
2018-03-31T21:42:06.382Z,3.30
2018-03-31T21:44:33.350Z,4.00
2018-03-31T21:47:00.301Z,3.10
2018-03-31T21:49:27.249Z,2.70
2018-03-31T21:51:54.999Z,3.73
2018-03-31T21:54:21.949Z,2.70
2018-03-31T21:56:48.910Z,1.77
2018-03-31T21:59:15.858Z,2.20
2018-03-31T22:01:42.821Z,2.33
2018-03-31T22:04:09.791Z,1.87
2018-03-31T22:06:36.744Z,1.77
2018-03-31T22:09:03.707Z,2.43
2018-03-31T22:11:30.677Z,2.80
2018-03-31T22:14:03.358Z,2.10
2018-03-31T22:16:30.309Z,2.40
2018-03-31T22:18:57.254Z,1.73
2018-03-31T22:21:24.222Z,2.30
2018-03-31T22:23:51.190Z,2.10
2018-03-31T22:26:18.175Z,1.97
2018-03-31T22:28:45.157Z,2.40
2018-03-31T22:31:12.124Z,1.27
2018-03-31T22:33:39.143Z,1.60
2018-03-31T22:36:06.066Z,1.63
2018-03-31T22:38:33.022Z,1.73
2018-03-31T22:40:59.976Z,1.60
2018-03-31T22:43:26.920Z,1.90
2018-03-31T22:45:54.405Z,2.20
2018-03-31T22:48:21.358Z,2.50
2018-03-31T22:50:48.321Z,2.27
2018-03-31T22:53:15.287Z,1.50
2018-03-31T22:55:43.020Z,1.63
2018-03-31T22:58:10.000Z,1.40
2018-03-31T23:00:36.962Z,1.10
2018-03-31T23:03:06.415Z,1.83
2018-03-31T23:05:33.373Z,1.00
2018-03-31T23:08:00.305Z,1.40
2018-03-31T23:10:27.278Z,0.90
2018-03-31T23:12:54.221Z,1.70
2018-03-31T23:15:21.177Z,1.33
2018-03-31T23:17:48.113Z,1.17
2018-03-31T23:20:15.061Z,1.53
2018-03-31T23:22:42.040Z,2.33
2018-03-31T23:25:08.990Z,1.30
2018-03-31T23:27:35.957Z,1.10
2018-03-31T23:30:02.907Z,2.17
2018-03-31T23:32:29.861Z,1.57
2018-03-31T23:34:58.328Z,1.50
2018-03-31T23:37:25.269Z,1.70
2018-03-31T23:39:52.240Z,1.67
2018-03-31T23:42:19.169Z,1.93
2018-03-31T23:44:46.126Z,1.63
2018-03-31T23:47:13.086Z,2.13
2018-03-31T23:49:40.049Z,1.20
2018-03-31T23:52:07.006Z,1.20
2018-03-31T23:54:34.714Z,1.60
2018-03-31T23:57:01.669Z,1.30
2018-03-31T23:59:28.616Z,1.27
